sensor_id;sensor_type;location;lat;lon;timestamp;pressure;altitude;pressure_sealevel;temperature;humidity
39843;BME280;25514;46.764;15.406;2022-07-29T11:45:02;96943.25;;;32.37;32.08
39843;BME280;25514;46.764;15.406;2022-07-29T11:47:36;96945.31;;;32.70;33.52
39843;BME280;25514;46.764;15.406;2022-07-29T11:50:04;96944.81;;;33.06;33.81
39843;BME280;25514;46.764;15.406;2022-07-29T11:52:38;96935.03;;;33.25;32.92
39843;BME280;25514;46.764;15.406;2022-07-29T11:55:11;96928.88;;;33.36;32.39
39843;BME280;25514;46.764;15.406;2022-07-29T11:57:45;96927.38;;;33.35;31.00
39843;BME280;25514;46.764;15.406;2022-07-29T12:00:12;96934.84;;;33.05;31.77
39843;BME280;25514;46.764;15.406;2022-07-29T12:02:45;96932.63;;;33.39;32.62
39843;BME280;25514;46.764;15.406;2022-07-29T12:05:11;96934.47;;;33.79;32.24
39843;BME280;25514;46.764;15.406;2022-07-29T12:07:37;96936.13;;;33.82;30.87
39843;BME280;25514;46.764;15.406;2022-07-29T12:10:05;96925.28;;;33.88;31.04
39843;BME280;25514;46.764;15.406;2022-07-29T12:12:31;96930.38;;;33.72;31.75
39843;BME280;25514;46.764;15.406;2022-07-29T12:14:56;96924.31;;;33.58;32.41
39843;BME280;25514;46.764;15.406;2022-07-29T12:17:25;96931.88;;;33.56;33.20
39843;BME280;25514;46.764;15.406;2022-07-29T12:19:52;96924.63;;;33.45;32.99
39843;BME280;25514;46.764;15.406;2022-07-29T12:22:29;96914.91;;;33.38;33.25
39843;BME280;25514;46.764;15.406;2022-07-29T12:24:55;96910.75;;;32.96;32.03
39843;BME280;25514;46.764;15.406;2022-07-29T12:27:21;96910.81;;;32.89;34.43
39843;BME280;25514;46.764;15.406;2022-07-29T12:30:01;96914.22;;;32.87;34.37
39843;BME280;25514;46.764;15.406;2022-07-29T12:35:09;96912.25;;;32.47;33.95
39843;BME280;25514;46.764;15.406;2022-07-29T12:37:36;96909.22;;;32.28;35.11
39843;BME280;25514;46.764;15.406;2022-07-29T12:40:06;96912.84;;;32.20;36.14
39843;BME280;25514;46.764;15.406;2022-07-29T12:42:32;96910.22;;;32.15;36.22
39843;BME280;25514;46.764;15.406;2022-07-29T12:44:58;96915.22;;;31.91;36.76
39843;BME280;25514;46.764;15.406;2022-07-29T12:47:24;96905.75;;;31.63;37.60
39843;BME280;25514;46.764;15.406;2022-07-29T12:49:50;96900.72;;;31.54;37.75
39843;BME280;25514;46.764;15.406;2022-07-29T12:52:32;96896.19;;;31.59;38.74
39843;BME280;25514;46.764;15.406;2022-07-29T12:54:58;96903.31;;;31.52;38.59
39843;BME280;25514;46.764;15.406;2022-07-29T12:57:25;96902.06;;;31.38;37.09
39843;BME280;25514;46.764;15.406;2022-07-29T13:00:07;96899.66;;;31.26;37.77
39843;BME280;25514;46.764;15.406;2022-07-29T13:02:36;96897.03;;;31.21;38.71
39843;BME280;25514;46.764;15.406;2022-07-29T13:05:02;96893.66;;;31.14;37.79
39843;BME280;25514;46.764;15.406;2022-07-29T13:07:30;96893.50;;;31.05;38.53
39843;BME280;25514;46.764;15.406;2022-07-29T13:10:15;96896.44;;;31.22;38.88
39843;BME280;25514;46.764;15.406;2022-07-29T13:13:05;96890.28;;;31.08;38.20
39843;BME280;25514;46.764;15.406;2022-07-29T13:15:32;96890.66;;;31.12;38.64
39843;BME280;25514;46.764;15.406;2022-07-29T13:17:58;96876.34;;;31.10;38.69
39843;BME280;25514;46.764;15.406;2022-07-29T13:20:25;96876.94;;;30.78;39.74
39843;BME280;25514;46.764;15.406;2022-07-29T13:22:52;96876.97;;;30.47;40.02
39843;BME280;25514;46.764;15.406;2022-07-29T13:25:29;96888.47;;;29.82;41.69
39843;BME280;25514;46.764;15.406;2022-07-29T13:27:55;96888.81;;;29.34;41.74
39843;BME280;25514;46.764;15.406;2022-07-29T13:30:21;96881.66;;;28.96;42.37
39843;BME280;25514;46.764;15.406;2022-07-29T13:32:47;96884.34;;;28.81;43.33
39843;BME280;25514;46.764;15.406;2022-07-29T13:35:13;96882.81;;;29.01;43.23
39843;BME280;25514;46.764;15.406;2022-07-29T13:37:39;96882.41;;;29.26;43.29
39843;BME280;25514;46.764;15.406;2022-07-29T13:40:07;96883.44;;;29.15;41.74
39843;BME280;25514;46.764;15.406;2022-07-29T13:42:33;96885.69;;;28.80;42.21
39843;BME280;25514;46.764;15.406;2022-07-29T13:45:00;96880.69;;;28.44;43.58
39843;BME280;25514;46.764;15.406;2022-07-29T13:47:25;96876.66;;;28.31;43.55
39843;BME280;25514;46.764;15.406;2022-07-29T13:49:51;96873.06;;;28.31;44.79
39843;BME280;25514;46.764;15.406;2022-07-29T13:52:19;96874.59;;;28.32;44.12
39843;BME280;25514;46.764;15.406;2022-07-29T13:54:45;96874.38;;;28.30;43.93
39843;BME280;25514;46.764;15.406;2022-07-29T13:57:11;96861.00;;;28.23;42.50
39843;BME280;25514;46.764;15.406;2022-07-29T13:59:37;96863.97;;;27.83;43.86
39843;BME280;25514;46.764;15.406;2022-07-29T14:02:03;96859.94;;;27.91;45.13
39843;BME280;25514;46.764;15.406;2022-07-29T14:04:28;96866.75;;;27.96;44.18
39843;BME280;25514;46.764;15.406;2022-07-29T14:06:54;96868.25;;;27.97;44.31
39843;BME280;25514;46.764;15.406;2022-07-29T14:09:19;96865.06;;;27.79;43.39
39843;BME280;25514;46.764;15.406;2022-07-29T14:11:45;96870.47;;;27.77;44.34
39843;BME280;25514;46.764;15.406;2022-07-29T14:14:11;96864.91;;;27.98;44.48
39843;BME280;25514;46.764;15.406;2022-07-29T14:16:38;96863.16;;;28.30;45.03
39843;BME280;25514;46.764;15.406;2022-07-29T14:19:03;96860.44;;;28.66;44.40
39843;BME280;25514;46.764;15.406;2022-07-29T14:21:29;96857.19;;;28.83;43.33
39843;BME280;25514;46.764;15.406;2022-07-29T14:23:54;96859.97;;;28.76;42.87
39843;BME280;25514;46.764;15.406;2022-07-29T14:26:21;96845.97;;;28.62;42.40
39843;BME280;25514;46.764;15.406;2022-07-29T14:28:47;96849.94;;;28.67;42.90
39843;BME280;25514;46.764;15.406;2022-07-29T14:31:13;96845.91;;;28.76;43.10
39843;BME280;25514;46.764;15.406;2022-07-29T14:33:39;96846.22;;;29.01;43.46
39843;BME280;25514;46.764;15.406;2022-07-29T14:36:04;96836.63;;;29.25;42.70
39843;BME280;25514;46.764;15.406;2022-07-29T14:38:30;96842.88;;;29.39;42.60
39843;BME280;25514;46.764;15.406;2022-07-29T14:40:58;96841.19;;;29.36;41.96
39843;BME280;25514;46.764;15.406;2022-07-29T14:43:23;96843.03;;;29.33;42.63
39843;BME280;25514;46.764;15.406;2022-07-29T14:45:49;96842.91;;;29.54;43.09
39843;BME280;25514;46.764;15.406;2022-07-29T14:48:14;96836.97;;;29.66;42.88
39843;BME280;25514;46.764;15.406;2022-07-29T14:50:40;96841.47;;;29.69;43.18
39843;BME280;25514;46.764;15.406;2022-07-29T14:53:05;96838.66;;;29.69;43.20
39843;BME280;25514;46.764;15.406;2022-07-29T14:55:31;96838.66;;;29.61;43.25
39843;BME280;25514;46.764;15.406;2022-07-29T14:57:57;96831.88;;;29.56;43.43
39843;BME280;25514;46.764;15.406;2022-07-29T15:00:23;96831.44;;;29.45;44.26
39843;BME280;25514;46.764;15.406;2022-07-29T15:02:49;96831.34;;;29.66;44.21
39843;BME280;25514;46.764;15.406;2022-07-29T15:05:14;96835.94;;;29.92;43.78
39843;BME280;25514;46.764;15.406;2022-07-29T15:07:40;96825.22;;;30.14;42.94
39843;BME280;25514;46.764;15.406;2022-07-29T15:10:06;96814.16;;;30.23;42.24
39843;BME280;25514;46.764;15.406;2022-07-29T15:12:31;96812.47;;;30.28;41.97
39843;BME280;25514;46.764;15.406;2022-07-29T15:14:57;96805.31;;;30.35;41.46
39843;BME280;25514;46.764;15.406;2022-07-29T15:17:23;96804.78;;;30.52;41.48
39843;BME280;25514;46.764;15.406;2022-07-29T15:19:49;96809.63;;;30.67;40.80
39843;BME280;25514;46.764;15.406;2022-07-29T15:22:14;96802.81;;;30.85;40.36
39843;BME280;25514;46.764;15.406;2022-07-29T15:24:40;96807.69;;;31.08;41.54
39843;BME280;25514;46.764;15.406;2022-07-29T15:27:05;96805.16;;;31.27;39.64
39843;BME280;25514;46.764;15.406;2022-07-29T15:29:31;96801.88;;;31.46;39.51
39843;BME280;25514;46.764;15.406;2022-07-29T15:31:56;96805.41;;;31.14;38.39
39843;BME280;25514;46.764;15.406;2022-07-29T15:34:22;96803.66;;;31.26;38.85
39843;BME280;25514;46.764;15.406;2022-07-29T15:36:50;96798.00;;;31.34;39.12
39843;BME280;25514;46.764;15.406;2022-07-29T15:39:16;96794.75;;;31.38;38.32
39843;BME280;25514;46.764;15.406;2022-07-29T15:41:41;96791.16;;;31.45;38.17
39843;BME280;25514;46.764;15.406;2022-07-29T15:44:07;96800.91;;;31.59;38.01
39843;BME280;25514;46.764;15.406;2022-07-29T15:46:33;96792.28;;;31.82;37.69
39843;BME280;25514;46.764;15.406;2022-07-29T15:49:17;96787.50;;;31.93;37.06
39843;BME280;25514;46.764;15.406;2022-07-29T15:51:42;96791.25;;;31.95;36.52
39843;BME280;25514;46.764;15.406;2022-07-29T15:54:08;96788.47;;;31.87;37.43
39843;BME280;25514;46.764;15.406;2022-07-29T15:56:33;96784.13;;;31.86;37.38
39843;BME280;25514;46.764;15.406;2022-07-29T15:58:59;96782.88;;;31.80;36.22
39843;BME280;25514;46.764;15.406;2022-07-29T16:01:25;96774.97;;;31.78;37.18
39843;BME280;25514;46.764;15.406;2022-07-29T16:03:51;96771.94;;;31.84;36.58
39843;BME280;25514;46.764;15.406;2022-07-29T16:06:16;96775.38;;;31.75;37.47
39843;BME280;25514;46.764;15.406;2022-07-29T16:08:42;96773.34;;;31.67;37.17
39843;BME280;25514;46.764;15.406;2022-07-29T16:11:08;96780.06;;;31.80;37.59
39843;BME280;25514;46.764;15.406;2022-07-29T16:13:33;96777.59;;;31.84;36.32
39843;BME280;25514;46.764;15.406;2022-07-29T16:15:59;96772.50;;;31.82;36.45
39843;BME280;25514;46.764;15.406;2022-07-29T16:18:24;96781.09;;;31.92;37.41
39843;BME280;25514;46.764;15.406;2022-07-29T16:20:50;96769.91;;;31.77;35.93
39843;BME280;25514;46.764;15.406;2022-07-29T16:23:15;96771.84;;;31.66;36.40
39843;BME280;25514;46.764;15.406;2022-07-29T16:25:41;96766.66;;;31.47;36.64
39843;BME280;25514;46.764;15.406;2022-07-29T16:28:07;96761.78;;;31.48;36.84
39843;BME280;25514;46.764;15.406;2022-07-29T16:30:34;96756.34;;;31.42;36.60
39843;BME280;25514;46.764;15.406;2022-07-29T16:32:59;96746.88;;;31.47;36.75
39843;BME280;25514;46.764;15.406;2022-07-29T16:35:25;96753.47;;;31.50;36.70
39843;BME280;25514;46.764;15.406;2022-07-29T16:37:51;96744.06;;;31.47;36.47
39843;BME280;25514;46.764;15.406;2022-07-29T16:40:16;96743.72;;;31.43;37.44
39843;BME280;25514;46.764;15.406;2022-07-29T16:42:42;96747.75;;;31.32;36.71
39843;BME280;25514;46.764;15.406;2022-07-29T16:45:08;96750.59;;;31.25;37.13
39843;BME280;25514;46.764;15.406;2022-07-29T16:47:34;96757.03;;;31.17;37.81
39843;BME280;25514;46.764;15.406;2022-07-29T16:49:59;96755.44;;;30.83;37.65
39843;BME280;25514;46.764;15.406;2022-07-29T16:52:24;96751.75;;;30.65;38.28
39843;BME280;25514;46.764;15.406;2022-07-29T16:54:50;96750.84;;;30.40;40.13
39843;BME280;25514;46.764;15.406;2022-07-29T16:57:19;96748.78;;;30.17;40.22
39843;BME280;25514;46.764;15.406;2022-07-29T16:59:44;96748.22;;;29.96;40.57
39843;BME280;25514;46.764;15.406;2022-07-29T17:02:09;96750.28;;;29.80;41.53
39843;BME280;25514;46.764;15.406;2022-07-29T17:04:36;96747.22;;;29.70;39.96
39843;BME280;25514;46.764;15.406;2022-07-29T17:07:01;96749.28;;;29.54;40.37
39843;BME280;25514;46.764;15.406;2022-07-29T17:09:27;96742.69;;;29.36;40.52
39843;BME280;25514;46.764;15.406;2022-07-29T17:11:52;96743.72;;;29.17;40.74
39843;BME280;25514;46.764;15.406;2022-07-29T17:14:25;96756.81;;;29.07;41.79
39843;BME280;25514;46.764;15.406;2022-07-29T17:16:53;96756.03;;;28.99;41.34
39843;BME280;25514;46.764;15.406;2022-07-29T17:19:22;96745.63;;;28.78;41.62
39843;BME280;25514;46.764;15.406;2022-07-29T17:21:47;96741.03;;;28.60;41.48
39843;BME280;25514;46.764;15.406;2022-07-29T17:24:13;96748.63;;;28.51;42.25
39843;BME280;25514;46.764;15.406;2022-07-29T17:26:39;96752.19;;;28.52;42.62
39843;BME280;25514;46.764;15.406;2022-07-29T17:29:07;96743.97;;;28.54;42.39
39843;BME280;25514;46.764;15.406;2022-07-29T17:31:33;96752.19;;;28.52;42.98
39843;BME280;25514;46.764;15.406;2022-07-29T17:33:58;96758.88;;;28.41;43.44
39843;BME280;25514;46.764;15.406;2022-07-29T17:36:27;96759.72;;;28.28;43.33
39843;BME280;25514;46.764;15.406;2022-07-29T17:39:00;96753.63;;;28.17;43.57
39843;BME280;25514;46.764;15.406;2022-07-29T17:41:26;96759.34;;;28.03;43.55
39843;BME280;25514;46.764;15.406;2022-07-29T17:43:52;96753.97;;;27.92;42.83
39843;BME280;25514;46.764;15.406;2022-07-29T17:46:20;96757.50;;;27.85;43.97
39843;BME280;25514;46.764;15.406;2022-07-29T17:48:47;96757.53;;;27.71;44.51
39843;BME280;25514;46.764;15.406;2022-07-29T17:51:13;96752.19;;;27.60;43.61
39843;BME280;25514;46.764;15.406;2022-07-29T17:53:39;96760.53;;;27.52;43.05
39843;BME280;25514;46.764;15.406;2022-07-29T17:56:04;96760.13;;;27.48;42.88
39843;BME280;25514;46.764;15.406;2022-07-29T17:58:31;96756.56;;;27.48;44.07
39843;BME280;25514;46.764;15.406;2022-07-29T18:00:57;96751.81;;;27.42;43.05
39843;BME280;25514;46.764;15.406;2022-07-29T18:03:23;96757.03;;;27.38;42.80
39843;BME280;25514;46.764;15.406;2022-07-29T18:05:49;96758.13;;;27.22;42.91
39843;BME280;25514;46.764;15.406;2022-07-29T18:08:15;96759.47;;;27.07;44.20
39843;BME280;25514;46.764;15.406;2022-07-29T18:10:44;96764.00;;;26.97;45.79
39843;BME280;25514;46.764;15.406;2022-07-29T18:13:10;96761.31;;;26.78;47.15
39843;BME280;25514;46.764;15.406;2022-07-29T18:15:41;96766.28;;;26.59;48.76
39843;BME280;25514;46.764;15.406;2022-07-29T18:18:07;96765.41;;;26.50;49.47
39843;BME280;25514;46.764;15.406;2022-07-29T18:20:33;96761.66;;;26.48;49.42
39843;BME280;25514;46.764;15.406;2022-07-29T18:22:59;96766.34;;;26.13;51.45
39843;BME280;25514;46.764;15.406;2022-07-29T18:25:25;96764.94;;;26.06;51.89
39843;BME280;25514;46.764;15.406;2022-07-29T18:27:51;96765.91;;;26.09;51.86
39843;BME280;25514;46.764;15.406;2022-07-29T18:30:17;96747.38;;;26.06;51.59
39843;BME280;25514;46.764;15.406;2022-07-29T18:32:44;96752.97;;;26.06;52.00
39843;BME280;25514;46.764;15.406;2022-07-29T18:35:09;96768.06;;;26.03;52.91
39843;BME280;25514;46.764;15.406;2022-07-29T18:37:35;96768.13;;;25.97;53.93
39843;BME280;25514;46.764;15.406;2022-07-29T18:40:03;96767.13;;;25.94;54.28
39843;BME280;25514;46.764;15.406;2022-07-29T18:42:29;96762.84;;;25.93;54.24
39843;BME280;25514;46.764;15.406;2022-07-29T18:44:54;96767.97;;;25.89;55.47
39843;BME280;25514;46.764;15.406;2022-07-29T18:47:22;96769.16;;;25.80;56.24
39843;BME280;25514;46.764;15.406;2022-07-29T18:49:48;96777.41;;;25.73;57.42
39843;BME280;25514;46.764;15.406;2022-07-29T18:52:13;96771.16;;;25.67;57.80
39843;BME280;25514;46.764;15.406;2022-07-29T18:54:39;96776.47;;;25.51;57.28
39843;BME280;25514;46.764;15.406;2022-07-29T18:57:04;96780.09;;;25.46;57.82
39843;BME280;25514;46.764;15.406;2022-07-29T18:59:31;96789.78;;;25.45;57.86
39843;BME280;25514;46.764;15.406;2022-07-29T19:01:58;96792.78;;;25.47;57.74
39843;BME280;25514;46.764;15.406;2022-07-29T19:04:24;96798.06;;;25.51;58.03
39843;BME280;25514;46.764;15.406;2022-07-29T19:06:49;96814.78;;;25.56;56.96
39843;BME280;25514;46.764;15.406;2022-07-29T19:09:15;96818.78;;;25.61;57.02
39843;BME280;25514;46.764;15.406;2022-07-29T19:11:41;96830.22;;;25.63;56.68
39843;BME280;25514;46.764;15.406;2022-07-29T19:14:07;96839.44;;;25.58;57.90
39843;BME280;25514;46.764;15.406;2022-07-29T19:16:32;96845.09;;;25.52;58.17
39843;BME280;25514;46.764;15.406;2022-07-29T19:18:58;96857.66;;;25.45;58.79
39843;BME280;25514;46.764;15.406;2022-07-29T19:21:25;96860.53;;;25.40;59.27
39843;BME280;25514;46.764;15.406;2022-07-29T19:23:50;96872.09;;;25.30;59.26
39843;BME280;25514;46.764;15.406;2022-07-29T19:26:17;96871.75;;;25.15;60.42
39843;BME280;25514;46.764;15.406;2022-07-29T19:28:42;96874.03;;;24.92;61.44
39843;BME280;25514;46.764;15.406;2022-07-29T19:31:08;96884.09;;;24.76;62.44
39843;BME280;25514;46.764;15.406;2022-07-29T19:33:33;96885.22;;;24.67;62.38
39843;BME280;25514;46.764;15.406;2022-07-29T19:35:59;96901.81;;;24.54;62.02
39843;BME280;25514;46.764;15.406;2022-07-29T19:38:26;96905.03;;;24.33;62.51
39843;BME280;25514;46.764;15.406;2022-07-29T19:40:51;96903.31;;;24.25;62.45
39843;BME280;25514;46.764;15.406;2022-07-29T19:43:17;96906.78;;;24.00;64.29
39843;BME280;25514;46.764;15.406;2022-07-29T19:45:42;96919.13;;;23.69;66.06
39843;BME280;25514;46.764;15.406;2022-07-29T19:48:17;96934.09;;;23.66;66.75
39843;BME280;25514;46.764;15.406;2022-07-29T19:50:43;96942.56;;;23.43;67.54
39843;BME280;25514;46.764;15.406;2022-07-29T19:53:09;96942.84;;;23.34;69.16
39843;BME280;25514;46.764;15.406;2022-07-29T19:55:35;96960.38;;;23.23;70.27
39843;BME280;25514;46.764;15.406;2022-07-29T19:58:00;96962.91;;;23.04;71.31
39843;BME280;25514;46.764;15.406;2022-07-29T20:00:28;96975.09;;;22.84;72.59
39843;BME280;25514;46.764;15.406;2022-07-29T20:02:55;96974.34;;;22.50;74.85
39843;BME280;25514;46.764;15.406;2022-07-29T20:05:21;96979.44;;;22.46;75.80
39843;BME280;25514;46.764;15.406;2022-07-29T20:07:47;96985.16;;;22.25;76.64
39843;BME280;25514;46.764;15.406;2022-07-29T20:10:13;96991.47;;;22.08;77.44
39843;BME280;25514;46.764;15.406;2022-07-29T20:12:38;96986.66;;;21.98;78.65
39843;BME280;25514;46.764;15.406;2022-07-29T20:15:07;96992.41;;;21.83;79.14
39843;BME280;25514;46.764;15.406;2022-07-29T20:17:35;96997.69;;;21.75;79.58
39843;BME280;25514;46.764;15.406;2022-07-29T20:20:03;97011.59;;;21.69;80.27
39843;BME280;25514;46.764;15.406;2022-07-29T20:22:29;97013.09;;;21.70;81.66
39843;BME280;25514;46.764;15.406;2022-07-29T20:24:55;97019.41;;;21.65;81.82
39843;BME280;25514;46.764;15.406;2022-07-29T20:27:21;97016.81;;;21.56;79.57
39843;BME280;25514;46.764;15.406;2022-07-29T20:29:46;97001.19;;;21.64;81.25
39843;BME280;25514;46.764;15.406;2022-07-29T20:32:12;96993.38;;;21.68;79.10
39843;BME280;25514;46.764;15.406;2022-07-29T20:34:38;96995.41;;;21.68;79.22
39843;BME280;25514;46.764;15.406;2022-07-29T20:37:05;96984.34;;;21.85;78.14
39843;BME280;25514;46.764;15.406;2022-07-29T20:39:35;96990.84;;;21.70;80.05
39843;BME280;25514;46.764;15.406;2022-07-29T20:42:00;96983.63;;;21.47;80.53
39843;BME280;25514;46.764;15.406;2022-07-29T20:44:26;96966.56;;;21.22;80.18
39843;BME280;25514;46.764;15.406;2022-07-29T20:46:51;96951.56;;;21.03;79.63
39843;BME280;25514;46.764;15.406;2022-07-29T20:49:17;96939.41;;;20.94;79.77
39843;BME280;25514;46.764;15.406;2022-07-29T20:51:42;96918.59;;;20.78;79.25
39843;BME280;25514;46.764;15.406;2022-07-29T20:54:08;96917.03;;;20.72;80.93
39843;BME280;25514;46.764;15.406;2022-07-29T20:56:34;96906.00;;;20.83;80.57
39843;BME280;25514;46.764;15.406;2022-07-29T20:58:59;96892.97;;;21.00;78.71
39843;BME280;25514;46.764;15.406;2022-07-29T21:01:24;96878.63;;;21.13;77.36
39843;BME280;25514;46.764;15.406;2022-07-29T21:03:50;96865.44;;;21.03;77.14
39843;BME280;25514;46.764;15.406;2022-07-29T21:06:16;96875.81;;;21.02;78.29
39843;BME280;25514;46.764;15.406;2022-07-29T21:08:41;96880.78;;;20.92;78.23
39843;BME280;25514;46.764;15.406;2022-07-29T21:11:07;96863.53;;;20.77;79.33
39843;BME280;25514;46.764;15.406;2022-07-29T21:13:32;96855.50;;;20.79;79.39
39843;BME280;25514;46.764;15.406;2022-07-29T21:16:06;96863.53;;;20.77;78.35
39843;BME280;25514;46.764;15.406;2022-07-29T21:18:44;96855.69;;;20.70;79.95
39843;BME280;25514;46.764;15.406;2022-07-29T21:21:12;96860.38;;;20.58;82.12
39843;BME280;25514;46.764;15.406;2022-07-29T21:23:38;96863.75;;;20.36;82.10
39843;BME280;25514;46.764;15.406;2022-07-29T21:26:04;96871.28;;;20.29;83.23
39843;BME280;25514;46.764;15.406;2022-07-29T21:28:30;96870.75;;;20.25;84.73
39843;BME280;25514;46.764;15.406;2022-07-29T21:31:23;96863.22;;;20.32;84.24
39843;BME280;25514;46.764;15.406;2022-07-29T21:33:48;96856.31;;;20.53;82.26
39843;BME280;25514;46.764;15.406;2022-07-29T21:36:13;96853.44;;;20.74;79.17
39843;BME280;25514;46.764;15.406;2022-07-29T21:38:39;96855.69;;;20.75;78.65
39843;BME280;25514;46.764;15.406;2022-07-29T21:41:05;96853.50;;;20.47;79.90
39843;BME280;25514;46.764;15.406;2022-07-29T21:43:31;96856.59;;;20.23;81.38
39843;BME280;25514;46.764;15.406;2022-07-29T21:45:57;96869.13;;;20.13;82.81
39843;BME280;25514;46.764;15.406;2022-07-29T21:48:24;96867.16;;;20.19;83.12
39843;BME280;25514;46.764;15.406;2022-07-29T21:50:51;96870.47;;;20.23;82.94
39843;BME280;25514;46.764;15.406;2022-07-29T21:53:17;96859.78;;;20.10;83.11
39843;BME280;25514;46.764;15.406;2022-07-29T21:55:43;96861.75;;;20.04;83.70
39843;BME280;25514;46.764;15.406;2022-07-29T21:58:08;96861.69;;;19.99;83.39
39843;BME280;25514;46.764;15.406;2022-07-29T22:00:36;96857.41;;;19.98;83.54
39843;BME280;25514;46.764;15.406;2022-07-29T22:03:03;96855.06;;;19.90;83.56
39843;BME280;25514;46.764;15.406;2022-07-29T22:05:29;96856.16;;;19.99;83.03
39843;BME280;25514;46.764;15.406;2022-07-29T22:07:55;96852.22;;;20.11;83.59
39843;BME280;25514;46.764;15.406;2022-07-29T22:10:21;96846.13;;;20.07;83.09
39843;BME280;25514;46.764;15.406;2022-07-29T22:12:54;96856.69;;;20.03;83.19
39843;BME280;25514;46.764;15.406;2022-07-29T22:15:21;96851.91;;;20.03;83.28
39843;BME280;25514;46.764;15.406;2022-07-29T22:17:47;96843.34;;;20.07;82.70
39843;BME280;25514;46.764;15.406;2022-07-29T22:20:12;96846.94;;;20.13;82.92
39843;BME280;25514;46.764;15.406;2022-07-29T22:22:38;96837.59;;;20.10;82.92
39843;BME280;25514;46.764;15.406;2022-07-29T22:25:05;96843.16;;;20.10;84.40
39843;BME280;25514;46.764;15.406;2022-07-29T22:27:31;96838.34;;;20.11;84.56
39843;BME280;25514;46.764;15.406;2022-07-29T22:29:57;96848.47;;;20.14;84.62
39843;BME280;25514;46.764;15.406;2022-07-29T22:32:22;96844.66;;;20.11;84.77
39843;BME280;25514;46.764;15.406;2022-07-29T22:34:48;96842.38;;;20.10;85.17
39843;BME280;25514;46.764;15.406;2022-07-29T22:37:14;96835.31;;;20.09;84.76
39843;BME280;25514;46.764;15.406;2022-07-29T22:39:39;96825.19;;;20.06;85.31
39843;BME280;25514;46.764;15.406;2022-07-29T22:42:05;96826.72;;;20.07;85.95
39843;BME280;25514;46.764;15.406;2022-07-29T22:44:30;96836.50;;;20.02;86.11
39843;BME280;25514;46.764;15.406;2022-07-29T22:46:56;96838.19;;;19.88;86.10
39843;BME280;25514;46.764;15.406;2022-07-29T22:49:21;96837.06;;;19.80;86.86
39843;BME280;25514;46.764;15.406;2022-07-29T22:51:47;96827.66;;;19.72;88.07
39843;BME280;25514;46.764;15.406;2022-07-29T22:54:12;96821.06;;;19.69;89.07
39843;BME280;25514;46.764;15.406;2022-07-29T22:56:38;96817.28;;;19.67;89.09
39843;BME280;25514;46.764;15.406;2022-07-29T22:59:03;96821.72;;;19.58;89.20
39843;BME280;25514;46.764;15.406;2022-07-29T23:01:29;96815.66;;;19.54;89.09
39843;BME280;25514;46.764;15.406;2022-07-29T23:03:54;96804.72;;;19.45;89.49
39843;BME280;25514;46.764;15.406;2022-07-29T23:06:20;96809.78;;;19.47;90.52
39843;BME280;25514;46.764;15.406;2022-07-29T23:08:45;96809.28;;;19.48;90.63
39843;BME280;25514;46.764;15.406;2022-07-29T23:11:11;96806.44;;;19.43;90.81
39843;BME280;25514;46.764;15.406;2022-07-29T23:13:36;96820.53;;;19.39;91.94
39843;BME280;25514;46.764;15.406;2022-07-29T23:16:02;96812.72;;;19.37;92.08
39843;BME280;25514;46.764;15.406;2022-07-29T23:18:27;96816.78;;;19.42;91.49
39843;BME280;25514;46.764;15.406;2022-07-29T23:20:53;96818.59;;;19.45;91.18
39843;BME280;25514;46.764;15.406;2022-07-29T23:23:19;96816.63;;;19.51;90.97
39843;BME280;25514;46.764;15.406;2022-07-29T23:25:44;96829.19;;;19.47;90.86
39843;BME280;25514;46.764;15.406;2022-07-29T23:28:10;96822.25;;;19.36;90.75
39843;BME280;25514;46.764;15.406;2022-07-29T23:30:35;96828.50;;;19.31;90.31
39843;BME280;25514;46.764;15.406;2022-07-29T23:33:01;96814.88;;;19.28;90.22
39843;BME280;25514;46.764;15.406;2022-07-29T23:35:27;96810.31;;;19.25;90.29
39843;BME280;25514;46.764;15.406;2022-07-29T23:37:52;96817.69;;;19.33;91.30
39843;BME280;25514;46.764;15.406;2022-07-29T23:40:18;96814.66;;;19.31;90.63
39843;BME280;25514;46.764;15.406;2022-07-29T23:42:43;96817.91;;;19.30;90.72
39843;BME280;25514;46.764;15.406;2022-07-29T23:45:10;96814.44;;;19.35;90.64
39843;BME280;25514;46.764;15.406;2022-07-29T23:47:37;96820.78;;;19.41;90.01
39843;BME280;25514;46.764;15.406;2022-07-29T23:50:07;96820.78;;;19.41;89.71
39843;BME280;25514;46.764;15.406;2022-07-29T23:52:32;96810.69;;;19.38;89.72
39843;BME280;25514;46.764;15.406;2022-07-29T23:54:58;96809.44;;;19.39;90.20
39843;BME280;25514;46.764;15.406;2022-07-29T23:57:24;96811.50;;;19.44;89.80
39843;BME280;25514;46.764;15.406;2022-07-29T23:59:50;96808.03;;;19.49;90.16
